Time;durP1;ratioP1;P1;durP2;ratioP2;P2;SDS_P1;SDS_P2;PMS_P1;PMS_P2;Temp;Humidity;BMP_temperature;BMP_pressure;BME280_temperature;BME280_humidity;BME280_pressure;Samples;Min_cycle;Max_cycle;Signal;HPM_P1;HPM_P2
2023/09/15 00:01:27;;;;;;;4.97;4.57;;;17.50;86.90;;;;;;5075211;28;20440;-56
2023/09/15 00:03:54;;;;;;;4.83;4.10;;;17.50;86.90;;;;;;5074540;28;21015;-55
2023/09/15 00:06:20;;;;;;;5.50;4.90;;;17.50;87.00;;;;;;5074876;28;20854;-56
2023/09/15 00:08:47;;;;;;;5.07;4.20;;;17.50;86.90;;;;;;5074748;28;20468;-56
2023/09/15 00:11:19;;;;;;;6.07;4.37;;;17.50;86.90;;;;;;5074629;28;20448;-56
2023/09/15 00:13:46;;;;;;;5.40;5.00;;;17.40;86.60;;;;;;5074695;28;20464;-56
2023/09/15 00:16:13;;;;;;;5.80;4.57;;;17.50;86.90;;;;;;5074602;28;20441;-56
2023/09/15 00:18:41;;;;;;;7.40;5.00;;;17.50;87.00;;;;;;5074458;28;20492;-56
2023/09/15 00:21:09;;;;;;;5.33;4.37;;;17.40;87.10;;;;;;5074450;28;20956;-56
2023/09/15 00:23:37;;;;;;;4.63;3.80;;;17.40;87.30;;;;;;5074359;28;20539;-56
2023/09/15 00:26:04;;;;;;;6.17;4.43;;;17.40;87.80;;;;;;5074439;28;20432;-56
2023/09/15 00:28:32;;;;;;;4.90;4.40;;;17.40;87.00;;;;;;5074302;28;20475;-56
2023/09/15 00:31:00;;;;;;;6.23;4.47;;;17.40;87.10;;;;;;5074160;28;20476;-56
2023/09/15 00:33:26;;;;;;;4.90;4.07;;;17.30;87.10;;;;;;5073963;28;20961;-56
2023/09/15 00:35:53;;;;;;;5.37;4.37;;;17.30;87.10;;;;;;5074217;28;20460;-56
2023/09/15 00:38:21;;;;;;;5.17;4.77;;;17.30;87.20;;;;;;5073964;28;20484;-56
2023/09/15 00:40:48;;;;;;;5.57;4.37;;;17.30;87.30;;;;;;5073994;28;20459;-56
2023/09/15 00:43:15;;;;;;;5.40;4.00;;;17.30;87.30;;;;;;5073620;28;20858;-56
2023/09/15 00:45:44;;;;;;;5.60;4.50;;;17.20;87.30;;;;;;5073693;28;20468;-56
2023/09/15 00:48:11;;;;;;;6.97;5.00;;;17.20;87.20;;;;;;5074065;28;20501;-56
2023/09/15 00:50:38;;;;;;;5.40;3.87;;;17.20;87.20;;;;;;5073806;28;20468;-56
2023/09/15 00:53:09;;;;;;;4.27;3.63;;;17.20;87.40;;;;;;5073523;28;21041;-56
2023/09/15 00:55:36;;;;;;;4.67;4.10;;;17.20;87.70;;;;;;5073894;28;20437;-56
2023/09/15 00:58:11;;;;;;;4.63;4.23;;;17.20;87.90;;;;;;5073677;28;20946;-56
2023/09/15 01:00:41;;;;;;;5.83;4.00;;;17.10;87.70;;;;;;5073786;28;20498;-56
2023/09/15 01:03:10;;;;;;;5.50;4.10;;;17.10;87.50;;;;;;5073426;28;20895;-56
2023/09/15 01:05:40;;;;;;;7.20;4.70;;;17.10;87.50;;;;;;5073799;28;20445;-56
2023/09/15 01:08:07;;;;;;;5.20;4.13;;;17.00;87.60;;;;;;5073213;28;20451;-56
2023/09/15 01:10:35;;;;;;;4.70;3.90;;;17.00;87.60;;;;;;5073842;28;20468;-56
2023/09/15 01:13:02;;;;;;;6.43;3.90;;;17.00;87.60;;;;;;5073931;28;20680;-55
2023/09/15 01:15:33;;;;;;;5.00;4.50;;;16.90;87.60;;;;;;5074459;28;20455;-56
2023/09/15 01:18:09;;;;;;;5.00;4.37;;;16.90;87.90;;;;;;5073826;28;20437;-56
2023/09/15 01:20:59;;;;;;;6.67;4.23;;;16.90;87.80;;;;;;5073285;28;20969;-55
2023/09/15 01:23:42;;;;;;;4.40;4.00;;;16.80;87.80;;;;;;5072975;28;20881;-56
2023/09/15 01:26:55;;;;;;;6.17;3.63;;;16.80;88.00;;;;;;5073266;28;20440;-56
2023/09/15 01:29:44;;;;;;;4.13;3.73;;;16.80;88.30;;;;;;5073427;28;20461;-56
2023/09/15 01:32:13;;;;;;;4.80;4.30;;;16.80;88.30;;;;;;5073454;28;20504;-55
2023/09/15 01:34:46;;;;;;;5.10;4.30;;;16.80;88.30;;;;;;5073161;28;20439;-56
2023/09/15 01:37:12;;;;;;;7.20;3.50;;;16.70;88.20;;;;;;5073476;28;20428;-56
2023/09/15 01:39:39;;;;;;;5.60;3.93;;;16.70;88.40;;;;;;5072847;28;21034;-55
2023/09/15 01:42:06;;;;;;;5.37;4.40;;;16.70;88.60;;;;;;5073341;28;20879;-56
2023/09/15 01:44:33;;;;;;;9.80;4.30;;;16.70;88.60;;;;;;5072850;28;20871;-56
2023/09/15 01:47:01;;;;;;;4.30;3.90;;;16.70;88.70;;;;;;5072921;28;20965;-56
2023/09/15 01:49:28;;;;;;;4.23;3.83;;;16.70;89.10;;;;;;5072907;28;20999;-56
2023/09/15 01:51:56;;;;;;;5.43;4.93;;;16.70;89.40;;;;;;5073239;28;20502;-56
2023/09/15 01:54:23;;;;;;;4.50;3.70;;;16.70;89.40;;;;;;5072964;28;20966;-56
2023/09/15 01:56:50;;;;;;;4.53;4.07;;;16.70;89.40;;;;;;5073205;28;20455;-56
2023/09/15 01:59:16;;;;;;;6.57;4.27;;;16.60;89.50;;;;;;5073287;28;20484;-56
2023/09/15 02:01:43;;;;;;;6.77;4.13;;;16.60;89.90;;;;;;5073266;28;20437;-56
2023/09/15 02:04:11;;;;;;;4.83;3.90;;;16.70;90.00;;;;;;5073203;28;20445;-56
2023/09/15 02:06:38;;;;;;;6.60;4.33;;;16.70;90.00;;;;;;5073107;28;20445;-56
2023/09/15 02:09:05;;;;;;;6.80;4.17;;;16.70;90.00;;;;;;5072940;28;20461;-56
2023/09/15 02:11:32;;;;;;;4.30;3.67;;;16.60;90.00;;;;;;5073073;28;20803;-56
2023/09/15 02:13:59;;;;;;;5.10;4.60;;;16.60;90.00;;;;;;5072941;28;20441;-55
2023/09/15 02:16:25;;;;;;;5.40;4.07;;;16.60;90.00;;;;;;5073073;28;20491;-56
2023/09/15 02:18:52;;;;;;;4.37;3.97;;;16.60;90.00;;;;;;5074561;28;20519;-56
2023/09/15 02:21:20;;;;;;;6.00;3.87;;;16.60;89.80;;;;;;5076895;28;20437;-56
2023/09/15 02:23:47;;;;;;;6.03;3.90;;;16.60;89.70;;;;;;5076655;28;20452;-56
2023/09/15 02:26:13;;;;;;;4.27;3.87;;;16.60;89.50;;;;;;5076855;28;20459;-56
2023/09/15 02:28:40;;;;;;;9.60;5.13;;;16.60;89.50;;;;;;5076701;28;20468;-56
2023/09/15 02:31:07;;;;;;;5.40;4.57;;;16.50;89.30;;;;;;5076481;28;20440;-55
2023/09/15 02:33:34;;;;;;;6.60;3.90;;;16.50;89.20;;;;;;5076663;28;20448;-56
2023/09/15 02:36:03;;;;;;;5.03;4.53;;;16.50;89.20;;;;;;5076845;28;20551;-55
2023/09/15 02:38:31;;;;;;;12.43;4.40;;;16.50;89.30;;;;;;5076371;28;20444;-56
2023/09/15 02:40:58;;;;;;;4.20;3.80;;;16.50;89.60;;;;;;5075951;28;20880;-55
2023/09/15 02:43:24;;;;;;;3.93;3.50;;;16.40;89.50;;;;;;5076359;28;20444;-55
2023/09/15 02:45:51;;;;;;;4.93;4.37;;;16.40;89.60;;;;;;5075998;28;20972;-55
2023/09/15 02:48:18;;;;;;;5.20;4.23;;;16.40;89.90;;;;;;5076249;28;20627;-56
2023/09/15 02:50:45;;;;;;;4.93;3.87;;;16.40;90.10;;;;;;5076336;28;20452;-56
2023/09/15 02:53:12;;;;;;;4.07;3.53;;;16.40;90.10;;;;;;5076193;28;20448;-55
2023/09/15 02:55:40;;;;;;;4.90;3.70;;;16.30;90.10;;;;;;5076227;28;20440;-56
2023/09/15 02:58:06;;;;;;;5.43;3.87;;;16.30;90.20;;;;;;5076107;28;20449;-56
2023/09/15 03:00:33;;;;;;;5.63;4.03;;;16.30;90.10;;;;;;5075614;28;20848;-56
2023/09/15 03:03:00;;;;;;;5.37;4.27;;;16.30;90.20;;;;;;5076221;28;20445;-56
2023/09/15 03:05:26;;;;;;;6.13;4.10;;;16.30;90.30;;;;;;5075966;28;20448;-56
2023/09/15 03:07:54;;;;;;;5.87;4.20;;;16.30;90.30;;;;;;5075928;28;20444;-56
2023/09/15 03:10:21;;;;;;;3.77;3.33;;;16.30;90.20;;;;;;5076011;28;20464;-56
2023/09/15 03:12:51;;;;;;;7.20;4.33;;;16.20;90.10;;;;;;5075884;28;20863;-55
2023/09/15 03:15:18;;;;;;;6.73;4.40;;;16.20;90.10;;;;;;5075880;28;20544;-55
2023/09/15 03:17:45;;;;;;;5.03;4.20;;;16.20;90.40;;;;;;5075810;28;20445;-56
2023/09/15 03:20:15;;;;;;;7.10;3.93;;;16.10;90.00;;;;;;5075661;28;20520;-56
2023/09/15 03:22:42;;;;;;;7.50;3.93;;;16.10;90.20;;;;;;5075658;28;20425;-55
2023/09/15 03:25:09;;;;;;;5.10;4.20;;;16.10;90.30;;;;;;5075520;28;20445;-55
2023/09/15 03:27:36;;;;;;;7.87;4.83;;;16.00;90.30;;;;;;5075661;28;20440;-55
2023/09/15 03:30:06;;;;;;;5.40;4.13;;;16.00;90.40;;;;;;5074857;28;20559;-55
2023/09/15 03:32:33;;;;;;;5.17;4.50;;;16.00;90.40;;;;;;5075506;28;20449;-56
2023/09/15 03:35:00;;;;;;;5.33;4.47;;;16.00;90.30;;;;;;5075526;28;20445;-55
2023/09/15 03:37:27;;;;;;;5.30;3.77;;;16.00;90.40;;;;;;5075480;28;20440;-55
2023/09/15 03:39:54;;;;;;;4.00;3.57;;;16.00;90.50;;;;;;5075320;28;20495;-55
2023/09/15 03:42:20;;;;;;;7.30;4.37;;;15.90;90.50;;;;;;5075317;28;20440;-55
2023/09/15 03:44:47;;;;;;;5.00;3.80;;;15.90;90.40;;;;;;5075229;28;20443;-55
2023/09/15 03:47:15;;;;;;;10.97;5.50;;;15.90;90.60;;;;;;5075311;28;20475;-55
2023/09/15 03:49:42;;;;;;;4.10;3.70;;;15.90;90.60;;;;;;5075275;28;20461;-55
2023/09/15 03:52:09;;;;;;;6.20;4.43;;;15.90;90.70;;;;;;5075215;28;20445;-55
2023/09/15 03:54:37;;;;;;;4.13;3.50;;;15.90;90.70;;;;;;5075071;28;20480;-55
2023/09/15 03:57:05;;;;;;;5.83;3.77;;;15.90;90.60;;;;;;5075073;28;20448;-55
2023/09/15 03:59:31;;;;;;;4.77;3.63;;;15.90;90.70;;;;;;5074928;28;20488;-55
2023/09/15 04:01:58;;;;;;;5.30;4.53;;;15.80;90.60;;;;;;5074925;28;20436;-55
2023/09/15 04:04:26;;;;;;;4.07;3.30;;;15.90;90.70;;;;;;5074900;28;20502;-55
2023/09/15 04:06:54;;;;;;;4.70;3.33;;;15.90;90.70;;;;;;5074981;28;20444;-55
2023/09/15 04:09:23;;;;;;;4.73;3.60;;;15.90;90.70;;;;;;5075289;28;20460;-55
2023/09/15 04:11:50;;;;;;;4.30;3.60;;;15.80;90.70;;;;;;5074490;28;20938;-55
2023/09/15 04:14:16;;;;;;;4.73;3.77;;;15.90;90.80;;;;;;5074460;28;20935;-55
2023/09/15 04:16:43;;;;;;;6.13;3.90;;;15.80;90.70;;;;;;5074457;28;20957;-55
2023/09/15 04:19:10;;;;;;;5.40;3.70;;;15.80;90.80;;;;;;5074222;28;20996;-55
2023/09/15 04:21:38;;;;;;;6.10;4.17;;;15.80;90.90;;;;;;5074604;28;20463;-55
2023/09/15 04:24:05;;;;;;;3.50;3.13;;;15.80;91.10;;;;;;5074581;28;20555;-55
2023/09/15 04:26:32;;;;;;;6.83;3.83;;;15.70;91.10;;;;;;5074757;28;20444;-56
2023/09/15 04:28:59;;;;;;;7.97;3.77;;;15.80;91.20;;;;;;5074266;28;21013;-55
2023/09/15 04:31:25;;;;;;;4.87;4.20;;;15.70;91.20;;;;;;5074309;28;20523;-55
2023/09/15 04:33:52;;;;;;;4.90;3.70;;;15.80;91.30;;;;;;5074494;28;20440;-55
2023/09/15 04:36:19;;;;;;;5.30;3.33;;;15.70;91.20;;;;;;5074550;28;20451;-55
2023/09/15 04:38:47;;;;;;;3.60;3.30;;;15.80;91.30;;;;;;5074388;28;20461;-54
2023/09/15 04:41:14;;;;;;;10.63;3.73;;;15.80;91.30;;;;;;5074333;28;20484;-55
2023/09/15 04:43:40;;;;;;;5.30;3.60;;;15.80;91.30;;;;;;5074071;28;20448;-55
2023/09/15 04:46:07;;;;;;;5.70;3.93;;;15.80;91.30;;;;;;5074723;28;20437;-55
2023/09/15 04:48:34;;;;;;;8.53;3.20;;;15.70;91.20;;;;;;5074638;28;20440;-55
2023/09/15 04:51:00;;;;;;;8.80;3.33;;;15.80;91.20;;;;;;5074908;28;20436;-55
2023/09/15 04:53:27;;;;;;;6.50;3.70;;;15.70;91.10;;;;;;5074289;28;20440;-55
2023/09/15 04:55:55;;;;;;;4.27;3.87;;;15.70;91.20;;;;;;5074405;28;20518;-55
2023/09/15 04:58:22;;;;;;;4.00;3.20;;;15.70;91.20;;;;;;5074052;28;20441;-55
2023/09/15 05:00:49;;;;;;;4.03;3.60;;;15.70;91.20;;;;;;5073997;28;20503;-55
2023/09/15 05:03:15;;;;;;;7.50;3.53;;;15.70;91.30;;;;;;5074390;28;20524;-54
2023/09/15 05:05:43;;;;;;;5.60;3.47;;;15.70;91.40;;;;;;5074276;28;20440;-55
2023/09/15 05:08:10;;;;;;;5.43;3.43;;;15.60;91.40;;;;;;5075222;28;20480;-55
2023/09/15 05:10:36;;;;;;;8.13;3.30;;;15.60;91.50;;;;;;5074333;28;20464;-55
2023/09/15 05:13:06;;;;;;;5.73;3.60;;;15.70;91.60;;;;;;5073811;28;20938;-55
2023/09/15 05:15:34;;;;;;;4.07;3.67;;;15.60;91.40;;;;;;5074284;28;20476;-55
2023/09/15 05:18:01;;;;;;;3.70;3.17;;;15.70;91.40;;;;;;5074176;28;20451;-55
2023/09/15 05:20:28;;;;;;;4.70;3.70;;;15.60;91.40;;;;;;5074097;28;20921;-54
2023/09/15 05:22:54;;;;;;;4.43;3.20;;;15.60;91.40;;;;;;5074275;28;20453;-54
2023/09/15 05:25:21;;;;;;;7.23;4.27;;;15.60;91.50;;;;;;5074110;28;20526;-55
2023/09/15 05:27:48;;;;;;;5.93;4.20;;;15.60;91.50;;;;;;5074143;28;20444;-55
2023/09/15 05:30:16;;;;;;;5.73;3.33;;;15.60;91.60;;;;;;5074026;28;20468;-55
2023/09/15 05:32:43;;;;;;;4.00;3.33;;;15.60;91.70;;;;;;5073608;28;20981;-55
2023/09/15 05:35:11;;;;;;;6.83;3.80;;;15.60;91.70;;;;;;5073322;28;20464;-54
2023/09/15 05:37:38;;;;;;;5.47;3.63;;;15.60;91.70;;;;;;5074014;28;20464;-55
2023/09/15 05:40:06;;;;;;;5.77;3.63;;;15.60;91.80;;;;;;5073310;28;20480;-54
2023/09/15 05:42:33;;;;;;;6.30;4.20;;;15.60;91.80;;;;;;5073752;28;20474;-55
2023/09/15 05:44:59;;;;;;;5.53;3.83;;;15.60;91.90;;;;;;5073268;28;20436;-55
2023/09/15 05:47:27;;;;;;;7.00;4.30;;;15.70;91.90;;;;;;5073039;28;20448;-55
2023/09/15 05:49:54;;;;;;;8.40;4.47;;;15.60;91.90;;;;;;5073212;28;20469;-55
2023/09/15 05:52:21;;;;;;;8.13;4.30;;;15.70;91.90;;;;;;5072894;28;20474;-55
2023/09/15 05:54:47;;;;;;;8.53;4.70;;;15.70;91.90;;;;;;5076163;28;20934;-55
2023/09/15 05:57:14;;;;;;;8.90;3.80;;;15.70;91.90;;;;;;5077059;28;20448;-55
2023/09/15 05:59:41;;;;;;;10.23;4.40;;;15.70;91.90;;;;;;5076828;28;20526;-55
2023/09/15 06:02:08;;;;;;;8.83;4.40;;;15.80;92.00;;;;;;5076840;28;20949;-55
2023/09/15 06:04:36;;;;;;;9.30;3.70;;;15.80;92.00;;;;;;5077222;28;20451;-55
2023/09/15 06:07:02;;;;;;;7.43;3.80;;;15.80;91.90;;;;;;5077154;28;20440;-55
2023/09/15 06:09:29;;;;;;;10.10;3.97;;;15.80;92.00;;;;;;5077051;28;20864;-55
2023/09/15 06:11:56;;;;;;;5.43;3.90;;;15.80;92.00;;;;;;5076950;28;20441;-54
2023/09/15 06:14:22;;;;;;;8.87;4.30;;;15.90;92.10;;;;;;5076962;28;20443;-55
2023/09/15 06:16:49;;;;;;;6.83;4.60;;;15.90;92.10;;;;;;5077804;28;20441;-56
2023/09/15 06:19:16;;;;;;;8.73;5.60;;;15.90;92.10;;;;;;5077848;28;20464;-55
2023/09/15 06:21:44;;;;;;;6.40;4.83;;;15.90;92.10;;;;;;5076710;28;20484;-54
2023/09/15 06:24:10;;;;;;;12.43;4.87;;;16.00;92.20;;;;;;5076581;28;20498;-55
2023/09/15 06:26:38;;;;;;;9.87;4.17;;;16.00;92.20;;;;;;5076833;28;20452;-56
2023/09/15 06:29:05;;;;;;;6.77;4.43;;;16.10;92.20;;;;;;5076561;28;20479;-56
2023/09/15 06:31:32;;;;;;;5.30;3.80;;;16.10;92.20;;;;;;5076639;28;20440;-56
2023/09/15 06:33:58;;;;;;;5.83;3.97;;;16.10;92.20;;;;;;5076222;28;20946;-56
2023/09/15 06:36:26;;;;;;;8.97;4.13;;;16.20;92.20;;;;;;5076365;28;20950;-56
2023/09/15 06:38:54;;;;;;;11.20;4.77;;;16.20;92.20;;;;;;5076499;28;20522;-56
2023/09/15 06:41:21;;;;;;;9.07;5.27;;;16.30;92.30;;;;;;5076072;28;21024;-56
2023/09/15 06:43:48;;;;;;;6.47;4.10;;;16.30;92.20;;;;;;5076070;28;20441;-56
2023/09/15 06:46:18;;;;;;;10.03;4.00;;;16.30;92.20;;;;;;5076049;28;20898;-56
2023/09/15 06:48:45;;;;;;;7.63;4.23;;;16.30;92.10;;;;;;5076304;28;20464;-56
2023/09/15 06:51:12;;;;;;;7.93;5.00;;;16.40;92.00;;;;;;5075964;28;20822;-56
2023/09/15 06:53:39;;;;;;;8.87;4.47;;;16.40;92.00;;;;;;5076210;28;20801;-56
2023/09/15 06:56:07;;;;;;;7.70;5.80;;;16.40;92.00;;;;;;5076219;28;20445;-56
2023/09/15 06:58:33;;;;;;;7.47;4.43;;;16.50;92.10;;;;;;5076108;28;20448;-56
2023/09/15 07:01:00;;;;;;;10.57;4.53;;;16.50;92.10;;;;;;5076082;28;20487;-56
2023/09/15 07:03:27;;;;;;;9.80;4.73;;;16.60;92.00;;;;;;5076150;28;20444;-56
2023/09/15 07:05:54;;;;;;;9.03;4.57;;;16.60;91.90;;;;;;5074602;28;20877;-56
2023/09/15 07:08:20;;;;;;;8.80;4.77;;;16.70;92.10;;;;;;5075892;28;20452;-56
2023/09/15 07:10:51;;;;;;;8.20;4.27;;;16.70;92.00;;;;;;5075910;28;20441;-56
2023/09/15 07:13:19;;;;;;;9.93;4.00;;;16.70;91.90;;;;;;5075838;28;20441;-56
2023/09/15 07:15:47;;;;;;;8.27;4.80;;;16.80;91.90;;;;;;5075871;28;20452;-56
2023/09/15 07:18:13;;;;;;;7.43;4.77;;;16.90;91.80;;;;;;5075897;28;20449;-56
2023/09/15 07:20:40;;;;;;;5.30;4.67;;;17.00;91.80;;;;;;5076097;28;20484;-56
2023/09/15 07:23:07;;;;;;;6.63;4.40;;;17.00;91.70;;;;;;5075635;28;20494;-56
2023/09/15 07:25:34;;;;;;;5.63;4.20;;;17.10;91.70;;;;;;5075436;28;20470;-56
2023/09/15 07:28:00;;;;;;;9.97;5.53;;;17.10;91.60;;;;;;5075644;28;20444;-56
2023/09/15 07:30:29;;;;;;;9.40;4.90;;;17.20;91.50;;;;;;5075750;28;20468;-56
2023/09/15 07:32:55;;;;;;;6.70;4.63;;;17.30;91.50;;;;;;5075474;28;20454;-56
2023/09/15 07:35:23;;;;;;;8.03;4.40;;;17.40;91.40;;;;;;5075557;28;20506;-56
2023/09/15 07:37:49;;;;;;;7.80;3.87;;;17.50;91.20;;;;;;5075072;28;20996;-56
2023/09/15 07:40:18;;;;;;;8.00;4.23;;;17.60;91.00;;;;;;5075402;28;20468;-56
2023/09/15 07:42:46;;;;;;;6.57;4.23;;;17.70;90.70;;;;;;5074828;28;20888;-56
2023/09/15 07:45:13;;;;;;;8.83;4.40;;;17.70;90.20;;;;;;5075031;28;20489;-56
2023/09/15 07:47:41;;;;;;;10.90;3.90;;;17.80;90.20;;;;;;5074999;28;20445;-56
2023/09/15 07:50:08;;;;;;;7.03;3.97;;;17.90;90.30;;;;;;5075937;28;20465;-56
2023/09/15 07:52:35;;;;;;;9.23;3.83;;;18.00;90.30;;;;;;5075259;28;20437;-56
2023/09/15 07:55:03;;;;;;;5.97;3.60;;;18.20;90.20;;;;;;5075203;28;20449;-57
2023/09/15 07:57:30;;;;;;;5.57;4.13;;;18.30;90.00;;;;;;5075178;28;20449;-57
2023/09/15 07:59:58;;;;;;;12.80;4.43;;;18.40;89.20;;;;;;5075100;28;20591;-56
2023/09/15 08:02:26;;;;;;;8.83;4.47;;;18.60;88.70;;;;;;5074878;28;20488;-56
2023/09/15 08:04:54;;;;;;;6.00;3.87;;;18.70;88.60;;;;;;5074738;28;20543;-56
2023/09/15 08:07:21;;;;;;;8.67;4.27;;;18.80;88.30;;;;;;5074957;28;20445;-57
2023/09/15 08:09:48;;;;;;;7.40;3.43;;;19.00;87.60;;;;;;5074842;28;20487;-57
2023/09/15 08:12:16;;;;;;;6.50;4.13;;;19.20;86.60;;;;;;5074712;28;20497;-56
2023/09/15 08:14:43;;;;;;;8.87;4.87;;;19.40;86.00;;;;;;5074742;28;21007;-57
2023/09/15 08:17:09;;;;;;;8.60;4.27;;;19.50;85.10;;;;;;5074529;28;20449;-57
2023/09/15 08:19:36;;;;;;;8.47;3.70;;;19.70;84.00;;;;;;5074932;28;20465;-57
2023/09/15 08:22:05;;;;;;;7.90;3.60;;;19.80;83.40;;;;;;5074591;28;20545;-57
2023/09/15 08:24:32;;;;;;;10.30;4.80;;;19.90;82.80;;;;;;5074242;28;20485;-57
2023/09/15 08:26:59;;;;;;;5.23;3.63;;;20.10;82.10;;;;;;5074521;28;20451;-57
2023/09/15 08:29:25;;;;;;;7.50;4.00;;;20.20;81.10;;;;;;5074426;28;20460;-57
2023/09/15 08:31:52;;;;;;;10.90;4.03;;;20.40;80.40;;;;;;5074307;28;20447;-57
2023/09/15 08:34:19;;;;;;;16.83;4.67;;;20.40;78.10;;;;;;5074196;28;20467;-57
2023/09/15 08:36:45;;;;;;;6.03;3.53;;;20.50;78.00;;;;;;5075186;28;20449;-57
2023/09/15 08:39:14;;;;;;;5.20;3.23;;;20.60;77.90;;;;;;5073905;28;20468;-57
2023/09/15 08:41:46;;;;;;;6.13;3.30;;;20.70;77.20;;;;;;5074068;28;20567;-57
2023/09/15 08:44:16;;;;;;;5.80;3.77;;;20.80;77.30;;;;;;5074177;28;20837;-57
2023/09/15 08:46:43;;;;;;;5.47;2.80;;;21.00;77.50;;;;;;5074002;28;20976;-57
2023/09/15 08:49:11;;;;;;;4.53;2.70;;;21.10;77.20;;;;;;5074333;28;20473;-57
2023/09/15 08:51:39;;;;;;;7.50;3.67;;;21.30;76.30;;;;;;5074403;28;20447;-57
2023/09/15 08:54:06;;;;;;;5.83;2.83;;;21.50;75.60;;;;;;5074115;28;20444;-57
2023/09/15 08:56:34;;;;;;;10.17;3.90;;;21.70;74.40;;;;;;5073630;28;20867;-57
2023/09/15 08:59:03;;;;;;;8.57;3.30;;;21.90;72.80;;;;;;5073437;28;20974;-57
2023/09/15 09:01:31;;;;;;;7.17;3.00;;;21.90;71.50;;;;;;5074010;28;20492;-57
2023/09/15 09:03:57;;;;;;;4.53;3.03;;;22.10;72.40;;;;;;5073845;28;20536;-57
2023/09/15 09:06:25;;;;;;;4.60;3.90;;;22.30;72.30;;;;;;5073861;28;20443;-57
2023/09/15 09:08:52;;;;;;;4.83;3.60;;;22.60;72.10;;;;;;5073705;28;20468;-56
2023/09/15 09:11:19;;;;;;;4.50;2.97;;;22.70;69.20;;;;;;5073439;28;20953;-57
2023/09/15 09:13:52;;;;;;;3.90;3.20;;;22.80;67.70;;;;;;5073706;28;20448;-56
2023/09/15 09:16:20;;;;;;;3.87;2.57;;;22.90;66.90;;;;;;5073697;28;20903;-57
2023/09/15 09:18:56;;;;;;;4.97;3.47;;;23.10;68.60;;;;;;5073657;28;20897;-57
2023/09/15 09:21:25;;;;;;;6.00;3.57;;;23.30;69.10;;;;;;5073212;28;20911;-57
2023/09/15 09:23:52;;;;;;;6.07;3.10;;;23.60;67.40;;;;;;5073353;28;20484;-57
2023/09/15 09:26:18;;;;;;;5.30;2.97;;;23.80;66.30;;;;;;5073545;28;20445;-57
2023/09/15 09:28:45;;;;;;;5.97;3.57;;;24.00;65.50;;;;;;5073019;28;20483;-57
2023/09/15 09:31:13;;;;;;;5.67;3.30;;;24.30;64.10;;;;;;5073420;28;20440;-57
2023/09/15 09:33:41;;;;;;;6.87;3.40;;;24.50;61.30;;;;;;5073474;28;20449;-57
2023/09/15 09:36:13;;;;;;;8.83;3.30;;;24.70;60.80;;;;;;5073412;28;20441;-57
2023/09/15 09:38:41;;;;;;;4.90;2.93;;;25.00;60.60;;;;;;5073271;28;20465;-57
2023/09/15 09:41:09;;;;;;;7.13;3.10;;;25.40;58.90;;;;;;5073580;28;20491;-57
2023/09/15 09:43:37;;;;;;;7.13;3.00;;;25.50;56.50;;;;;;5073215;28;20453;-57
2023/09/15 09:46:04;;;;;;;8.33;3.07;;;25.70;57.30;;;;;;5073454;28;20452;-57
2023/09/15 09:48:34;;;;;;;7.00;2.90;;;26.00;56.70;;;;;;5072875;28;20449;-57
2023/09/15 09:51:01;;;;;;;4.23;3.23;;;26.30;55.50;;;;;;5073218;28;20429;-57
2023/09/15 09:53:29;;;;;;;5.20;2.33;;;26.50;53.90;;;;;;5073310;28;20789;-57
2023/09/15 09:55:56;;;;;;;4.40;2.37;;;26.80;53.70;;;;;;5073233;28;20479;-57
2023/09/15 09:58:23;;;;;;;5.73;2.40;;;27.10;53.30;;;;;;5073154;28;20961;-58
2023/09/15 10:00:51;;;;;;;5.97;3.07;;;27.40;51.50;;;;;;5073370;28;20476;-58
2023/09/15 10:03:17;;;;;;;6.87;2.60;;;27.60;52.30;;;;;;5073304;28;20897;-57
2023/09/15 10:05:46;;;;;;;3.93;2.70;;;27.90;51.00;;;;;;5073169;28;20441;-57
2023/09/15 10:08:15;;;;;;;5.23;3.00;;;28.30;48.80;;;;;;5073139;28;20448;-58
2023/09/15 10:10:44;;;;;;;4.13;2.47;;;28.60;48.50;;;;;;5072879;28;20475;-57
2023/09/15 10:13:10;;;;;;;4.57;2.50;;;28.90;46.00;;;;;;5072986;28;20468;-57
2023/09/15 10:15:39;;;;;;;3.87;2.03;;;29.20;44.30;;;;;;5073147;28;20448;-58
2023/09/15 10:18:07;;;;;;;3.97;2.73;;;29.50;43.20;;;;;;5073073;28;20478;-58
2023/09/15 10:20:35;;;;;;;6.10;3.67;;;29.90;44.80;;;;;;5072864;28;20471;-57
2023/09/15 10:23:06;;;;;;;5.57;2.70;;;30.30;42.00;;;;;;5072713;28;20485;-58
2023/09/15 10:25:41;;;;;;;7.07;4.00;;;30.60;41.60;;;;;;5072941;28;20463;-57
2023/09/15 10:28:08;;;;;;;7.97;3.90;;;31.00;40.10;;;;;;5073461;28;20431;-58
2023/09/15 10:30:36;;;;;;;5.57;2.83;;;31.40;40.00;;;;;;5072823;28;20463;-58
2023/09/15 10:33:04;;;;;;;4.70;3.00;;;31.80;38.00;;;;;;5072594;28;20930;-58
2023/09/15 10:35:32;;;;;;;6.63;3.10;;;32.20;37.20;;;;;;5072882;28;20479;-58
2023/09/15 10:38:03;;;;;;;4.67;2.90;;;32.60;36.80;;;;;;5072502;28;20850;-58
2023/09/15 10:40:43;;;;;;;4.60;2.90;;;33.10;35.30;;;;;;5075279;28;20460;-58
2023/09/15 10:43:10;;;;;;;10.10;3.37;;;33.70;35.80;;;;;;5076557;28;20494;-57
2023/09/15 10:45:37;;;;;;;7.17;3.50;;;34.30;33.30;;;;;;5076273;28;20883;-58
2023/09/15 10:48:04;;;;;;;3.30;2.90;;;34.60;32.50;;;;;;5076553;28;20452;-58
2023/09/15 10:50:32;;;;;;;5.63;3.03;;;35.10;32.40;;;;;;5076357;28;20464;-58
2023/09/15 10:53:08;;;;;;;4.77;3.30;;;35.60;31.90;;;;;;5076425;28;20851;-58
2023/09/15 10:55:36;;;;;;;4.60;2.70;;;36.00;30.20;;;;;;5076328;28;20217;-58
2023/09/15 10:58:04;;;;;;;5.30;3.03;;;36.50;29.80;;;;;;5076340;28;20205;-56
2023/09/15 11:00:31;;;;;;;5.57;3.60;;;36.80;29.20;;;;;;5077251;28;20578;-56
2023/09/15 11:02:57;;;;;;;5.53;3.10;;;37.30;29.10;;;;;;5076119;28;20569;-56
2023/09/15 11:05:26;;;;;;;3.72;3.10;;;37.70;27.90;;;;;;5076557;28;20209;-56
2023/09/15 11:07:54;;;;;;;4.35;3.10;;;38.10;27.40;;;;;;5075928;28;20619;-57
2023/09/15 11:10:21;;;;;;;6.22;2.90;;;38.40;26.80;;;;;;5075970;28;20221;-56
2023/09/15 11:12:49;;;;;;;3.00;2.72;;;38.80;25.70;;;;;;5075624;28;20673;-56
2023/09/15 11:15:16;;;;;;;6.50;2.30;;;39.00;24.20;;;;;;5076000;28;20574;-57
2023/09/15 11:17:45;;;;;;;4.32;2.90;;;38.90;23.70;;;;;;5076101;28;20204;-57
2023/09/15 11:20:11;;;;;;;3.25;2.55;;;38.90;25.20;;;;;;5076029;28;20225;-57
2023/09/15 11:22:39;;;;;;;2.83;2.33;;;39.20;25.20;;;;;;5075867;28;20703;-56
2023/09/15 11:25:08;;;;;;;5.95;2.85;;;39.50;23.60;;;;;;5075874;28;20241;-57
2023/09/15 11:27:34;;;;;;;3.08;2.80;;;39.70;25.20;;;;;;5075825;28;20209;-56
2023/09/15 11:30:04;;;;;;;4.30;2.85;;;39.90;23.10;;;;;;5076034;28;20233;-57
2023/09/15 11:32:33;;;;;;;6.15;2.00;;;39.70;22.70;;;;;;5076176;28;20671;-57
2023/09/15 11:35:04;;;;;;;2.88;1.92;;;39.50;23.60;;;;;;5075739;28;20220;-56
2023/09/15 11:37:31;;;;;;;4.55;2.60;;;39.70;23.10;;;;;;5075876;28;20286;-57
2023/09/15 11:39:58;;;;;;;2.35;1.98;;;39.90;22.70;;;;;;5075434;28;20758;-57
2023/09/15 11:42:25;;;;;;;2.65;2.20;;;40.00;22.30;;;;;;5075646;28;20230;-57
2023/09/15 11:44:52;;;;;;;2.75;2.10;;;40.30;22.40;;;;;;5075660;28;20256;-57
2023/09/15 11:47:21;;;;;;;3.42;2.13;;;40.40;21.80;;;;;;5075388;28;20205;-57
2023/09/15 11:49:48;;;;;;;4.90;2.80;;;40.70;22.50;;;;;;5075428;28;20221;-57
2023/09/15 11:52:15;;;;;;;2.22;2.03;;;41.30;22.30;;;;;;5074643;28;20201;-57
2023/09/15 11:54:44;;;;;;;5.45;2.20;;;41.70;21.70;;;;;;5075232;28;20577;-57
2023/09/15 11:57:11;;;;;;;2.80;2.42;;;41.90;20.40;;;;;;5075231;28;20293;-57
2023/09/15 11:59:38;;;;;;;2.92;2.03;;;42.10;21.20;;;;;;5075136;28;20230;-57
2023/09/15 12:02:06;;;;;;;5.43;1.80;;;42.40;21.70;;;;;;5075003;28;20256;-57
2023/09/15 12:04:34;;;;;;;2.53;2.05;;;42.80;21.10;;;;;;5075351;28;20206;-57
2023/09/15 12:07:01;;;;;;;5.43;1.90;;;43.20;21.00;;;;;;5075065;28;20213;-57
2023/09/15 12:09:28;;;;;;;1.92;1.60;;;43.70;19.30;;;;;;5075010;28;20257;-57
2023/09/15 12:11:55;;;;;;;2.40;2.08;;;44.10;19.60;;;;;;5075019;28;20201;-58
2023/09/15 12:14:24;;;;;;;2.30;1.90;;;44.60;19.10;;;;;;5075009;28;20209;-57
2023/09/15 12:16:51;;;;;;;4.20;1.63;;;44.80;17.70;;;;;;5074344;28;20201;-57
2023/09/15 12:19:17;;;;;;;2.00;1.60;;;45.00;18.50;;;;;;5075562;28;20234;-58
2023/09/15 12:21:53;;;;;;;1.38;1.27;;;45.00;18.80;;;;;;5074700;28;20208;-58
2023/09/15 12:24:20;;;;;;;1.83;1.70;;;45.20;18.50;;;;;;5074509;28;20209;-58
2023/09/15 12:26:47;;;;;;;2.15;1.42;;;45.40;17.50;;;;;;5074891;28;20197;-57
2023/09/15 12:29:15;;;;;;;2.70;1.73;;;45.60;18.50;;;;;;5074773;28;20221;-58
2023/09/15 12:31:44;;;;;;;1.70;1.40;;;45.90;17.90;;;;;;5074527;28;20621;-58
2023/09/15 12:34:19;;;;;;;2.28;1.45;;;46.10;17.00;;;;;;5074886;28;20202;-58
2023/09/15 12:36:46;;;;;;;1.90;1.70;;;46.40;17.60;;;;;;5075119;28;20189;-58
2023/09/15 12:39:14;;;;;;;2.25;1.92;;;46.60;17.20;;;;;;5074758;28;20217;-58
2023/09/15 12:41:43;;;;;;;2.90;1.70;;;46.90;16.50;;;;;;5074766;28;20293;-58
2023/09/15 12:44:09;;;;;;;2.08;1.83;;;47.10;16.40;;;;;;5074922;28;20299;-57
2023/09/15 12:46:36;;;;;;;2.28;1.75;;;47.30;15.70;;;;;;5075186;28;20206;-57
2023/09/15 12:49:03;;;;;;;2.70;1.65;;;47.30;15.90;;;;;;5075084;28;20244;-57